sensor_id;sensor_type;location;lat;lon;timestamp;P1;durP1;ratioP1;P2;durP2;ratioP2
42084;SDS011;27746;52.228;20.890;2023-04-08T00:00:04;20.48;;;11.80;;
42084;SDS011;27746;52.228;20.890;2023-04-08T00:02:39;23.50;;;13.00;;
42084;SDS011;27746;52.228;20.890;2023-04-08T00:05:07;23.30;;;13.00;;
42084;SDS011;27746;52.228;20.890;2023-04-08T00:07:37;23.75;;;12.68;;
42084;SDS011;27746;52.228;20.890;2023-04-08T00:10:05;22.58;;;12.98;;
42084;SDS011;27746;52.228;20.890;2023-04-08T00:12:34;23.38;;;13.10;;
42084;SDS011;27746;52.228;20.890;2023-04-08T00:15:02;26.08;;;15.25;;
42084;SDS011;27746;52.228;20.890;2023-04-08T00:17:31;23.35;;;13.35;;
42084;SDS011;27746;52.228;20.890;2023-04-08T00:20:01;23.52;;;13.43;;
42084;SDS011;27746;52.228;20.890;2023-04-08T00:22:29;25.17;;;14.15;;
42084;SDS011;27746;52.228;20.890;2023-04-08T00:24:57;24.73;;;14.52;;
42084;SDS011;27746;52.228;20.890;2023-04-08T00:27:25;27.02;;;14.45;;
42084;SDS011;27746;52.228;20.890;2023-04-08T00:29:53;25.77;;;14.60;;
42084;SDS011;27746;52.228;20.890;2023-04-08T00:32:20;23.88;;;12.70;;
42084;SDS011;27746;52.228;20.890;2023-04-08T00:34:49;23.75;;;14.00;;
42084;SDS011;27746;52.228;20.890;2023-04-08T00:37:19;21.60;;;12.52;;
42084;SDS011;27746;52.228;20.890;2023-04-08T00:39:56;20.83;;;12.18;;
42084;SDS011;27746;52.228;20.890;2023-04-08T00:42:32;18.35;;;11.52;;
42084;SDS011;27746;52.228;20.890;2023-04-08T00:45:01;22.27;;;12.38;;
42084;SDS011;27746;52.228;20.890;2023-04-08T00:47:31;22.95;;;12.73;;
42084;SDS011;27746;52.228;20.890;2023-04-08T00:49:58;19.58;;;11.25;;
42084;SDS011;27746;52.228;20.890;2023-04-08T00:52:33;18.83;;;11.18;;
42084;SDS011;27746;52.228;20.890;2023-04-08T00:55:01;20.33;;;11.50;;
42084;SDS011;27746;52.228;20.890;2023-04-08T00:57:38;18.40;;;10.85;;
42084;SDS011;27746;52.228;20.890;2023-04-08T01:00:06;17.17;;;11.13;;
42084;SDS011;27746;52.228;20.890;2023-04-08T01:02:39;16.80;;;10.65;;
42084;SDS011;27746;52.228;20.890;2023-04-08T01:05:12;16.33;;;10.63;;
42084;SDS011;27746;52.228;20.890;2023-04-08T01:07:48;16.33;;;10.85;;
42084;SDS011;27746;52.228;20.890;2023-04-08T01:10:26;17.25;;;10.30;;
42084;SDS011;27746;52.228;20.890;2023-04-08T01:12:58;15.15;;;9.93;;
42084;SDS011;27746;52.228;20.890;2023-04-08T01:15:32;12.77;;;8.68;;
42084;SDS011;27746;52.228;20.890;2023-04-08T01:18:07;14.40;;;8.98;;
42084;SDS011;27746;52.228;20.890;2023-04-08T01:20:38;14.95;;;9.05;;
42084;SDS011;27746;52.228;20.890;2023-04-08T01:23:12;15.05;;;9.27;;
42084;SDS011;27746;52.228;20.890;2023-04-08T01:25:49;15.40;;;9.70;;
42084;SDS011;27746;52.228;20.890;2023-04-08T01:28:18;15.98;;;9.63;;
42084;SDS011;27746;52.228;20.890;2023-04-08T01:30:48;16.05;;;10.07;;
42084;SDS011;27746;52.228;20.890;2023-04-08T01:33:16;18.75;;;11.10;;
42084;SDS011;27746;52.228;20.890;2023-04-08T01:35:45;20.80;;;11.60;;
42084;SDS011;27746;52.228;20.890;2023-04-08T01:38:13;18.80;;;11.30;;
42084;SDS011;27746;52.228;20.890;2023-04-08T01:40:43;22.10;;;11.77;;
42084;SDS011;27746;52.228;20.890;2023-04-08T01:43:16;20.20;;;13.40;;
42084;SDS011;27746;52.228;20.890;2023-04-08T01:45:45;20.83;;;11.40;;
42084;SDS011;27746;52.228;20.890;2023-04-08T01:48:15;19.30;;;10.90;;
42084;SDS011;27746;52.228;20.890;2023-04-08T01:50:44;20.27;;;11.45;;
42084;SDS011;27746;52.228;20.890;2023-04-08T01:53:12;20.08;;;11.80;;
42084;SDS011;27746;52.228;20.890;2023-04-08T01:55:40;19.90;;;12.02;;
42084;SDS011;27746;52.228;20.890;2023-04-08T01:58:10;19.83;;;12.45;;
42084;SDS011;27746;52.228;20.890;2023-04-08T02:00:49;19.55;;;11.43;;
42084;SDS011;27746;52.228;20.890;2023-04-08T02:03:19;19.67;;;11.27;;
42084;SDS011;27746;52.228;20.890;2023-04-08T02:05:49;20.80;;;12.73;;
42084;SDS011;27746;52.228;20.890;2023-04-08T02:08:18;30.20;;;17.58;;
42084;SDS011;27746;52.228;20.890;2023-04-08T02:10:48;20.67;;;12.02;;
42084;SDS011;27746;52.228;20.890;2023-04-08T02:13:16;20.08;;;13.05;;
42084;SDS011;27746;52.228;20.890;2023-04-08T02:15:46;22.05;;;13.40;;
42084;SDS011;27746;52.228;20.890;2023-04-08T02:18:23;18.88;;;12.18;;
42084;SDS011;27746;52.228;20.890;2023-04-08T02:20:52;20.05;;;12.70;;
42084;SDS011;27746;52.228;20.890;2023-04-08T02:23:26;21.15;;;12.70;;
42084;SDS011;27746;52.228;20.890;2023-04-08T02:25:55;20.80;;;12.52;;
42084;SDS011;27746;52.228;20.890;2023-04-08T02:28:22;21.92;;;12.43;;
42084;SDS011;27746;52.228;20.890;2023-04-08T02:30:53;19.33;;;10.73;;
42084;SDS011;27746;52.228;20.890;2023-04-08T02:33:23;20.05;;;12.27;;
42084;SDS011;27746;52.228;20.890;2023-04-08T02:35:51;19.08;;;11.40;;
42084;SDS011;27746;52.228;20.890;2023-04-08T02:38:20;20.63;;;11.70;;
42084;SDS011;27746;52.228;20.890;2023-04-08T02:40:48;20.95;;;11.63;;
42084;SDS011;27746;52.228;20.890;2023-04-08T02:43:24;19.85;;;11.57;;
42084;SDS011;27746;52.228;20.890;2023-04-08T02:45:57;20.15;;;11.52;;
42084;SDS011;27746;52.228;20.890;2023-04-08T02:48:28;19.75;;;11.40;;
42084;SDS011;27746;52.228;20.890;2023-04-08T02:50:55;19.95;;;11.20;;
42084;SDS011;27746;52.228;20.890;2023-04-08T02:53:22;20.20;;;11.35;;
42084;SDS011;27746;52.228;20.890;2023-04-08T02:55:56;22.55;;;12.35;;
42084;SDS011;27746;52.228;20.890;2023-04-08T02:58:24;20.50;;;11.73;;
42084;SDS011;27746;52.228;20.890;2023-04-08T03:00:52;22.60;;;13.77;;
42084;SDS011;27746;52.228;20.890;2023-04-08T03:03:22;18.80;;;12.00;;
42084;SDS011;27746;52.228;20.890;2023-04-08T03:05:53;19.90;;;12.82;;
42084;SDS011;27746;52.228;20.890;2023-04-08T03:08:21;19.45;;;11.77;;
42084;SDS011;27746;52.228;20.890;2023-04-08T03:10:50;23.05;;;12.70;;
42084;SDS011;27746;52.228;20.890;2023-04-08T03:13:18;18.98;;;10.82;;
42084;SDS011;27746;52.228;20.890;2023-04-08T03:15:46;21.23;;;12.23;;
42084;SDS011;27746;52.228;20.890;2023-04-08T03:18:13;19.75;;;11.52;;
42084;SDS011;27746;52.228;20.890;2023-04-08T03:20:43;20.27;;;12.00;;
42084;SDS011;27746;52.228;20.890;2023-04-08T03:23:10;21.35;;;11.52;;
42084;SDS011;27746;52.228;20.890;2023-04-08T03:25:47;20.00;;;11.82;;
42084;SDS011;27746;52.228;20.890;2023-04-08T03:28:19;19.00;;;11.93;;
42084;SDS011;27746;52.228;20.890;2023-04-08T03:30:46;19.10;;;11.02;;
42084;SDS011;27746;52.228;20.890;2023-04-08T03:33:19;18.98;;;11.68;;
42084;SDS011;27746;52.228;20.890;2023-04-08T03:35:48;21.17;;;12.45;;
42084;SDS011;27746;52.228;20.890;2023-04-08T03:38:15;22.80;;;11.90;;
42084;SDS011;27746;52.228;20.890;2023-04-08T03:40:43;19.88;;;12.20;;
42084;SDS011;27746;52.228;20.890;2023-04-08T03:43:10;20.77;;;12.20;;
42084;SDS011;27746;52.228;20.890;2023-04-08T03:45:38;20.00;;;11.43;;
42084;SDS011;27746;52.228;20.890;2023-04-08T03:48:19;21.88;;;13.00;;
42084;SDS011;27746;52.228;20.890;2023-04-08T03:50:49;19.50;;;12.10;;
42084;SDS011;27746;52.228;20.890;2023-04-08T03:53:17;21.00;;;11.93;;
42084;SDS011;27746;52.228;20.890;2023-04-08T03:55:44;20.80;;;12.63;;
42084;SDS011;27746;52.228;20.890;2023-04-08T03:58:14;21.52;;;12.63;;
42084;SDS011;27746;52.228;20.890;2023-04-08T04:00:42;19.90;;;11.95;;
42084;SDS011;27746;52.228;20.890;2023-04-08T04:03:09;24.48;;;11.98;;
42084;SDS011;27746;52.228;20.890;2023-04-08T04:05:40;19.67;;;11.98;;
42084;SDS011;27746;52.228;20.890;2023-04-08T04:08:12;19.52;;;11.80;;
42084;SDS011;27746;52.228;20.890;2023-04-08T04:10:42;21.60;;;12.02;;
42084;SDS011;27746;52.228;20.890;2023-04-08T04:13:10;19.33;;;11.55;;
42084;SDS011;27746;52.228;20.890;2023-04-08T04:15:41;22.55;;;13.10;;
42084;SDS011;27746;52.228;20.890;2023-04-08T04:18:09;22.00;;;11.27;;
42084;SDS011;27746;52.228;20.890;2023-04-08T04:20:41;21.50;;;11.90;;
42084;SDS011;27746;52.228;20.890;2023-04-08T04:23:09;19.75;;;11.13;;
42084;SDS011;27746;52.228;20.890;2023-04-08T04:25:39;20.33;;;11.18;;
42084;SDS011;27746;52.228;20.890;2023-04-08T04:28:06;22.10;;;11.57;;
42084;SDS011;27746;52.228;20.890;2023-04-08T04:30:35;20.27;;;11.85;;
42084;SDS011;27746;52.228;20.890;2023-04-08T04:33:02;21.08;;;11.80;;
42084;SDS011;27746;52.228;20.890;2023-04-08T04:35:29;18.05;;;10.68;;
42084;SDS011;27746;52.228;20.890;2023-04-08T04:37:56;21.40;;;11.18;;
42084;SDS011;27746;52.228;20.890;2023-04-08T04:40:23;21.73;;;12.13;;
42084;SDS011;27746;52.228;20.890;2023-04-08T04:42:52;19.83;;;11.27;;
42084;SDS011;27746;52.228;20.890;2023-04-08T04:45:19;21.42;;;11.57;;
42084;SDS011;27746;52.228;20.890;2023-04-08T04:47:46;21.65;;;11.85;;
42084;SDS011;27746;52.228;20.890;2023-04-08T04:50:14;20.02;;;11.15;;
42084;SDS011;27746;52.228;20.890;2023-04-08T04:52:41;19.95;;;11.85;;
42084;SDS011;27746;52.228;20.890;2023-04-08T04:55:20;20.50;;;11.45;;
42084;SDS011;27746;52.228;20.890;2023-04-08T04:57:54;20.33;;;11.98;;
42084;SDS011;27746;52.228;20.890;2023-04-08T05:00:20;21.30;;;11.98;;
42084;SDS011;27746;52.228;20.890;2023-04-08T05:02:48;19.67;;;11.50;;
42084;SDS011;27746;52.228;20.890;2023-04-08T05:05:15;20.80;;;12.70;;
42084;SDS011;27746;52.228;20.890;2023-04-08T05:07:42;17.55;;;10.52;;
42084;SDS011;27746;52.228;20.890;2023-04-08T05:10:10;19.83;;;12.35;;
42084;SDS011;27746;52.228;20.890;2023-04-08T05:12:37;22.13;;;12.00;;
42084;SDS011;27746;52.228;20.890;2023-04-08T05:15:07;22.98;;;11.80;;
42084;SDS011;27746;52.228;20.890;2023-04-08T05:17:35;20.13;;;11.52;;
42084;SDS011;27746;52.228;20.890;2023-04-08T05:20:02;20.98;;;12.02;;
42084;SDS011;27746;52.228;20.890;2023-04-08T05:22:29;19.17;;;11.35;;
42084;SDS011;27746;52.228;20.890;2023-04-08T05:24:57;19.45;;;10.68;;
42084;SDS011;27746;52.228;20.890;2023-04-08T05:27:24;22.38;;;11.00;;
42084;SDS011;27746;52.228;20.890;2023-04-08T05:29:51;18.63;;;11.45;;
42084;SDS011;27746;52.228;20.890;2023-04-08T05:32:19;21.60;;;11.25;;
42084;SDS011;27746;52.228;20.890;2023-04-08T05:34:46;19.67;;;11.63;;
42084;SDS011;27746;52.228;20.890;2023-04-08T05:37:14;22.90;;;13.48;;
42084;SDS011;27746;52.228;20.890;2023-04-08T05:39:41;18.63;;;11.07;;
42084;SDS011;27746;52.228;20.890;2023-04-08T05:42:08;17.13;;;10.65;;
42084;SDS011;27746;52.228;20.890;2023-04-08T05:44:36;16.23;;;9.93;;
42084;SDS011;27746;52.228;20.890;2023-04-08T05:47:05;18.85;;;10.68;;
42084;SDS011;27746;52.228;20.890;2023-04-08T05:49:33;18.33;;;10.48;;
42084;SDS011;27746;52.228;20.890;2023-04-08T05:52:01;17.80;;;10.48;;
42084;SDS011;27746;52.228;20.890;2023-04-08T05:54:28;17.95;;;10.60;;
42084;SDS011;27746;52.228;20.890;2023-04-08T05:56:55;18.38;;;10.85;;
42084;SDS011;27746;52.228;20.890;2023-04-08T05:59:23;15.57;;;9.70;;
42084;SDS011;27746;52.228;20.890;2023-04-08T06:01:50;16.05;;;9.63;;
42084;SDS011;27746;52.228;20.890;2023-04-08T06:04:19;17.70;;;10.18;;
42084;SDS011;27746;52.228;20.890;2023-04-08T06:06:47;16.38;;;9.75;;
42084;SDS011;27746;52.228;20.890;2023-04-08T06:09:15;15.27;;;8.73;;
42084;SDS011;27746;52.228;20.890;2023-04-08T06:11:42;18.13;;;9.50;;
42084;SDS011;27746;52.228;20.890;2023-04-08T06:14:11;17.25;;;9.45;;
42084;SDS011;27746;52.228;20.890;2023-04-08T06:16:38;15.88;;;9.75;;
42084;SDS011;27746;52.228;20.890;2023-04-08T06:19:05;14.68;;;8.77;;
42084;SDS011;27746;52.228;20.890;2023-04-08T06:21:34;14.85;;;8.68;;
42084;SDS011;27746;52.228;20.890;2023-04-08T06:24:02;13.15;;;7.90;;
42084;SDS011;27746;52.228;20.890;2023-04-08T06:26:30;14.20;;;8.32;;
42084;SDS011;27746;52.228;20.890;2023-04-08T06:28:57;13.20;;;8.48;;
42084;SDS011;27746;52.228;20.890;2023-04-08T06:31:27;13.23;;;7.95;;
42084;SDS011;27746;52.228;20.890;2023-04-08T06:33:54;15.05;;;9.57;;
42084;SDS011;27746;52.228;20.890;2023-04-08T06:36:21;15.30;;;8.38;;
42084;SDS011;27746;52.228;20.890;2023-04-08T06:38:48;13.65;;;8.23;;
42084;SDS011;27746;52.228;20.890;2023-04-08T06:41:17;14.75;;;8.57;;
42084;SDS011;27746;52.228;20.890;2023-04-08T06:43:44;14.23;;;8.73;;
42084;SDS011;27746;52.228;20.890;2023-04-08T06:46:11;15.07;;;9.13;;
42084;SDS011;27746;52.228;20.890;2023-04-08T06:48:38;15.60;;;8.20;;
42084;SDS011;27746;52.228;20.890;2023-04-08T06:51:05;12.07;;;8.15;;
42084;SDS011;27746;52.228;20.890;2023-04-08T06:53:32;16.77;;;8.63;;
42084;SDS011;27746;52.228;20.890;2023-04-08T06:55:59;14.95;;;8.02;;
42084;SDS011;27746;52.228;20.890;2023-04-08T06:58:27;11.98;;;7.95;;
42084;SDS011;27746;52.228;20.890;2023-04-08T07:00:55;12.80;;;8.15;;
42084;SDS011;27746;52.228;20.890;2023-04-08T07:03:22;13.25;;;8.20;;
42084;SDS011;27746;52.228;20.890;2023-04-08T07:05:49;14.82;;;8.60;;
42084;SDS011;27746;52.228;20.890;2023-04-08T07:08:16;12.68;;;8.02;;
42084;SDS011;27746;52.228;20.890;2023-04-08T07:10:44;13.02;;;7.65;;
42084;SDS011;27746;52.228;20.890;2023-04-08T07:13:11;13.32;;;8.82;;
42084;SDS011;27746;52.228;20.890;2023-04-08T07:15:39;14.15;;;8.40;;
42084;SDS011;27746;52.228;20.890;2023-04-08T07:18:06;12.95;;;8.60;;
42084;SDS011;27746;52.228;20.890;2023-04-08T07:20:33;15.82;;;9.43;;
42084;SDS011;27746;52.228;20.890;2023-04-08T07:23:02;12.50;;;7.88;;
42084;SDS011;27746;52.228;20.890;2023-04-08T07:25:29;14.10;;;7.90;;
42084;SDS011;27746;52.228;20.890;2023-04-08T07:27:58;12.48;;;8.35;;
42084;SDS011;27746;52.228;20.890;2023-04-08T07:30:25;12.05;;;7.60;;
42084;SDS011;27746;52.228;20.890;2023-04-08T07:32:53;11.82;;;7.65;;
42084;SDS011;27746;52.228;20.890;2023-04-08T07:35:21;10.68;;;7.45;;
42084;SDS011;27746;52.228;20.890;2023-04-08T07:37:50;11.65;;;7.45;;
42084;SDS011;27746;52.228;20.890;2023-04-08T07:40:17;13.43;;;8.07;;
42084;SDS011;27746;52.228;20.890;2023-04-08T07:42:44;12.60;;;7.75;;
42084;SDS011;27746;52.228;20.890;2023-04-08T07:45:11;13.20;;;7.43;;
42084;SDS011;27746;52.228;20.890;2023-04-08T07:47:39;12.30;;;8.13;;
42084;SDS011;27746;52.228;20.890;2023-04-08T07:50:08;13.10;;;7.88;;
42084;SDS011;27746;52.228;20.890;2023-04-08T07:52:35;13.00;;;7.97;;
42084;SDS011;27746;52.228;20.890;2023-04-08T07:55:02;11.60;;;7.50;;
42084;SDS011;27746;52.228;20.890;2023-04-08T07:57:30;12.63;;;7.75;;
42084;SDS011;27746;52.228;20.890;2023-04-08T07:59:56;14.75;;;8.48;;
42084;SDS011;27746;52.228;20.890;2023-04-08T08:02:23;14.32;;;7.45;;
42084;SDS011;27746;52.228;20.890;2023-04-08T08:04:50;11.85;;;7.30;;
42084;SDS011;27746;52.228;20.890;2023-04-08T08:07:19;12.40;;;7.05;;
42084;SDS011;27746;52.228;20.890;2023-04-08T08:09:46;11.48;;;7.85;;
42084;SDS011;27746;52.228;20.890;2023-04-08T08:12:13;11.50;;;7.80;;
42084;SDS011;27746;52.228;20.890;2023-04-08T08:14:40;13.40;;;7.93;;
42084;SDS011;27746;52.228;20.890;2023-04-08T08:17:07;12.10;;;8.30;;
42084;SDS011;27746;52.228;20.890;2023-04-08T08:19:34;11.30;;;7.32;;
42084;SDS011;27746;52.228;20.890;2023-04-08T08:22:01;11.45;;;7.78;;
42084;SDS011;27746;52.228;20.890;2023-04-08T08:24:30;11.68;;;7.40;;
42084;SDS011;27746;52.228;20.890;2023-04-08T08:26:56;15.40;;;7.25;;
42084;SDS011;27746;52.228;20.890;2023-04-08T08:29:24;11.50;;;7.03;;
42084;SDS011;27746;52.228;20.890;2023-04-08T08:31:51;11.55;;;7.18;;
42084;SDS011;27746;52.228;20.890;2023-04-08T08:34:18;10.82;;;7.63;;
42084;SDS011;27746;52.228;20.890;2023-04-08T08:36:45;15.98;;;8.20;;
42084;SDS011;27746;52.228;20.890;2023-04-08T08:39:11;13.15;;;7.22;;
42084;SDS011;27746;52.228;20.890;2023-04-08T08:41:40;17.00;;;8.82;;
42084;SDS011;27746;52.228;20.890;2023-04-08T08:44:07;12.48;;;8.13;;
42084;SDS011;27746;52.228;20.890;2023-04-08T08:46:35;11.75;;;7.60;;
42084;SDS011;27746;52.228;20.890;2023-04-08T08:49:02;12.15;;;7.68;;
42084;SDS011;27746;52.228;20.890;2023-04-08T08:51:29;13.38;;;8.90;;
42084;SDS011;27746;52.228;20.890;2023-04-08T08:54:00;13.10;;;7.70;;
42084;SDS011;27746;52.228;20.890;2023-04-08T08:56:28;13.27;;;7.75;;
42084;SDS011;27746;52.228;20.890;2023-04-08T08:58:56;12.88;;;7.10;;
42084;SDS011;27746;52.228;20.890;2023-04-08T09:01:30;12.70;;;7.78;;
42084;SDS011;27746;52.228;20.890;2023-04-08T09:04:05;11.00;;;7.55;;
42084;SDS011;27746;52.228;20.890;2023-04-08T09:06:42;12.60;;;7.78;;
42084;SDS011;27746;52.228;20.890;2023-04-08T09:09:10;19.70;;;8.15;;
42084;SDS011;27746;52.228;20.890;2023-04-08T09:11:37;11.30;;;7.05;;
42084;SDS011;27746;52.228;20.890;2023-04-08T09:14:17;11.63;;;8.02;;
42084;SDS011;27746;52.228;20.890;2023-04-08T09:16:46;11.45;;;7.97;;
42084;SDS011;27746;52.228;20.890;2023-04-08T09:19:13;11.27;;;6.78;;
42084;SDS011;27746;52.228;20.890;2023-04-08T09:21:40;10.50;;;6.93;;
42084;SDS011;27746;52.228;20.890;2023-04-08T09:24:08;11.82;;;7.85;;
42084;SDS011;27746;52.228;20.890;2023-04-08T09:26:51;17.92;;;8.43;;
42084;SDS011;27746;52.228;20.890;2023-04-08T09:29:20;10.88;;;7.45;;
42084;SDS011;27746;52.228;20.890;2023-04-08T09:31:52;10.48;;;7.32;;
42084;SDS011;27746;52.228;20.890;2023-04-08T09:34:20;11.48;;;7.82;;
42084;SDS011;27746;52.228;20.890;2023-04-08T09:36:47;12.75;;;8.43;;
42084;SDS011;27746;52.228;20.890;2023-04-08T09:39:14;11.93;;;7.88;;
42084;SDS011;27746;52.228;20.890;2023-04-08T09:41:42;15.65;;;8.18;;
42084;SDS011;27746;52.228;20.890;2023-04-08T09:44:17;11.02;;;7.85;;
42084;SDS011;27746;52.228;20.890;2023-04-08T09:46:51;11.85;;;7.90;;
42084;SDS011;27746;52.228;20.890;2023-04-08T09:49:25;11.32;;;7.20;;
42084;SDS011;27746;52.228;20.890;2023-04-08T09:51:57;12.68;;;8.10;;
42084;SDS011;27746;52.228;20.890;2023-04-08T09:54:34;12.77;;;7.85;;
42084;SDS011;27746;52.228;20.890;2023-04-08T09:57:13;12.68;;;7.18;;
42084;SDS011;27746;52.228;20.890;2023-04-08T09:59:48;13.00;;;8.05;;
42084;SDS011;27746;52.228;20.890;2023-04-08T10:02:24;11.88;;;8.00;;
42084;SDS011;27746;52.228;20.890;2023-04-08T10:04:56;10.40;;;7.40;;
42084;SDS011;27746;52.228;20.890;2023-04-08T10:10:21;12.07;;;7.10;;
42084;SDS011;27746;52.228;20.890;2023-04-08T10:12:49;11.20;;;6.47;;
42084;SDS011;27746;52.228;20.890;2023-04-08T10:15:27;11.20;;;7.72;;
42084;SDS011;27746;52.228;20.890;2023-04-08T10:17:55;10.82;;;7.00;;
42084;SDS011;27746;52.228;20.890;2023-04-08T10:21:00;9.00;;;6.90;;
42084;SDS011;27746;52.228;20.890;2023-04-08T10:26:34;10.43;;;7.40;;
42084;SDS011;27746;52.228;20.890;2023-04-08T10:29:31;9.57;;;6.65;;
42084;SDS011;27746;52.228;20.890;2023-04-08T10:32:00;9.35;;;6.03;;
42084;SDS011;27746;52.228;20.890;2023-04-08T10:34:28;12.85;;;6.93;;
42084;SDS011;27746;52.228;20.890;2023-04-08T10:36:56;9.50;;;6.95;;
42084;SDS011;27746;52.228;20.890;2023-04-08T10:39:27;9.88;;;6.82;;
42084;SDS011;27746;52.228;20.890;2023-04-08T10:41:57;8.65;;;6.22;;
42084;SDS011;27746;52.228;20.890;2023-04-08T10:44:24;10.30;;;7.25;;
42084;SDS011;27746;52.228;20.890;2023-04-08T10:46:52;11.13;;;7.43;;
42084;SDS011;27746;52.228;20.890;2023-04-08T10:49:21;9.23;;;6.22;;
42084;SDS011;27746;52.228;20.890;2023-04-08T10:51:50;9.02;;;6.85;;
42084;SDS011;27746;52.228;20.890;2023-04-08T10:54:17;8.98;;;6.05;;
42084;SDS011;27746;52.228;20.890;2023-04-08T10:56:45;8.52;;;5.72;;
42084;SDS011;27746;52.228;20.890;2023-04-08T10:59:13;8.93;;;6.50;;
42084;SDS011;27746;52.228;20.890;2023-04-08T11:01:42;7.90;;;6.03;;
42084;SDS011;27746;52.228;20.890;2023-04-08T11:04:12;8.38;;;5.95;;
42084;SDS011;27746;52.228;20.890;2023-04-08T11:06:42;9.52;;;6.18;;
42084;SDS011;27746;52.228;20.890;2023-04-08T11:09:10;12.15;;;6.38;;
42084;SDS011;27746;52.228;20.890;2023-04-08T11:11:37;10.20;;;6.45;;
42084;SDS011;27746;52.228;20.890;2023-04-08T11:14:05;9.60;;;6.40;;
42084;SDS011;27746;52.228;20.890;2023-04-08T11:16:32;14.75;;;6.10;;
42084;SDS011;27746;52.228;20.890;2023-04-08T11:19:01;9.52;;;5.85;;
42084;SDS011;27746;52.228;20.890;2023-04-08T11:21:29;10.50;;;6.15;;
42084;SDS011;27746;52.228;20.890;2023-04-08T11:23:58;8.23;;;6.07;;
42084;SDS011;27746;52.228;20.890;2023-04-08T11:26:25;9.30;;;6.10;;
42084;SDS011;27746;52.228;20.890;2023-04-08T11:28:53;7.05;;;5.43;;
42084;SDS011;27746;52.228;20.890;2023-04-08T11:31:22;8.65;;;5.72;;
42084;SDS011;27746;52.228;20.890;2023-04-08T11:33:51;9.00;;;5.78;;
42084;SDS011;27746;52.228;20.890;2023-04-08T11:36:19;9.35;;;5.60;;
42084;SDS011;27746;52.228;20.890;2023-04-08T11:38:46;6.13;;;5.00;;
42084;SDS011;27746;52.228;20.890;2023-04-08T11:41:15;6.43;;;4.97;;
42084;SDS011;27746;52.228;20.890;2023-04-08T11:43:52;7.55;;;5.57;;
42084;SDS011;27746;52.228;20.890;2023-04-08T11:46:20;7.22;;;5.18;;
42084;SDS011;27746;52.228;20.890;2023-04-08T11:49:00;6.13;;;4.35;;
42084;SDS011;27746;52.228;20.890;2023-04-08T11:51:31;7.03;;;5.05;;
42084;SDS011;27746;52.228;20.890;2023-04-08T11:53:59;9.32;;;5.65;;
42084;SDS011;27746;52.228;20.890;2023-04-08T11:56:28;6.10;;;4.30;;
42084;SDS011;27746;52.228;20.890;2023-04-08T11:58:57;9.25;;;5.05;;
42084;SDS011;27746;52.228;20.890;2023-04-08T12:01:25;7.07;;;5.35;;
42084;SDS011;27746;52.228;20.890;2023-04-08T12:03:55;7.00;;;4.68;;
42084;SDS011;27746;52.228;20.890;2023-04-08T12:06:23;6.20;;;4.57;;
42084;SDS011;27746;52.228;20.890;2023-04-08T12:08:51;12.75;;;5.60;;
42084;SDS011;27746;52.228;20.890;2023-04-08T12:11:18;8.40;;;5.40;;
42084;SDS011;27746;52.228;20.890;2023-04-08T12:13:47;6.35;;;4.38;;
42084;SDS011;27746;52.228;20.890;2023-04-08T12:16:15;6.50;;;4.65;;
42084;SDS011;27746;52.228;20.890;2023-04-08T12:18:42;5.95;;;3.95;;
42084;SDS011;27746;52.228;20.890;2023-04-08T12:21:09;5.95;;;4.22;;
42084;SDS011;27746;52.228;20.890;2023-04-08T12:23:36;8.23;;;5.38;;
42084;SDS011;27746;52.228;20.890;2023-04-08T12:26:04;8.70;;;4.50;;
42084;SDS011;27746;52.228;20.890;2023-04-08T12:28:32;8.30;;;5.78;;
42084;SDS011;27746;52.228;20.890;2023-04-08T12:31:01;6.82;;;5.03;;
42084;SDS011;27746;52.228;20.890;2023-04-08T12:33:28;5.88;;;4.55;;
42084;SDS011;27746;52.228;20.890;2023-04-08T12:35:55;7.78;;;4.78;;
42084;SDS011;27746;52.228;20.890;2023-04-08T12:38:25;8.75;;;5.35;;
42084;SDS011;27746;52.228;20.890;2023-04-08T12:40:53;7.45;;;4.20;;
42084;SDS011;27746;52.228;20.890;2023-04-08T12:43:20;7.22;;;4.32;;
42084;SDS011;27746;52.228;20.890;2023-04-08T12:45:47;6.32;;;4.35;;
42084;SDS011;27746;52.228;20.890;2023-04-08T12:48:16;9.05;;;4.57;;
42084;SDS011;27746;52.228;20.890;2023-04-08T12:50:43;7.10;;;4.57;;
42084;SDS011;27746;52.228;20.890;2023-04-08T12:53:10;6.53;;;4.57;;
42084;SDS011;27746;52.228;20.890;2023-04-08T12:55:37;7.22;;;4.97;;
42084;SDS011;27746;52.228;20.890;2023-04-08T12:58:04;7.80;;;4.90;;
42084;SDS011;27746;52.228;20.890;2023-04-08T13:00:31;5.95;;;4.13;;
42084;SDS011;27746;52.228;20.890;2023-04-08T13:02:58;6.57;;;4.80;;
42084;SDS011;27746;52.228;20.890;2023-04-08T13:05:28;5.57;;;3.75;;
42084;SDS011;27746;52.228;20.890;2023-04-08T13:07:57;6.45;;;3.92;;
42084;SDS011;27746;52.228;20.890;2023-04-08T13:10:26;5.75;;;4.05;;
42084;SDS011;27746;52.228;20.890;2023-04-08T13:12:53;6.03;;;4.13;;
42084;SDS011;27746;52.228;20.890;2023-04-08T13:15:20;6.53;;;4.20;;
42084;SDS011;27746;52.228;20.890;2023-04-08T13:17:47;5.88;;;4.25;;
42084;SDS011;27746;52.228;20.890;2023-04-08T13:20:15;6.88;;;4.57;;
42084;SDS011;27746;52.228;20.890;2023-04-08T13:22:44;5.82;;;4.10;;
42084;SDS011;27746;52.228;20.890;2023-04-08T13:25:11;6.88;;;4.20;;
42084;SDS011;27746;52.228;20.890;2023-04-08T13:27:38;6.85;;;4.63;;
42084;SDS011;27746;52.228;20.890;2023-04-08T13:30:06;5.85;;;4.38;;
42084;SDS011;27746;52.228;20.890;2023-04-08T13:32:34;6.68;;;4.93;;
42084;SDS011;27746;52.228;20.890;2023-04-08T13:35:01;5.90;;;4.30;;
42084;SDS011;27746;52.228;20.890;2023-04-08T13:37:28;6.65;;;4.47;;
42084;SDS011;27746;52.228;20.890;2023-04-08T13:39:57;6.88;;;4.35;;
42084;SDS011;27746;52.228;20.890;2023-04-08T13:42:24;6.57;;;4.28;;
42084;SDS011;27746;52.228;20.890;2023-04-08T13:44:51;6.30;;;4.25;;
42084;SDS011;27746;52.228;20.890;2023-04-08T13:47:18;6.45;;;3.78;;
42084;SDS011;27746;52.228;20.890;2023-04-08T13:49:45;6.50;;;4.28;;
42084;SDS011;27746;52.228;20.890;2023-04-08T13:52:12;9.48;;;4.90;;
42084;SDS011;27746;52.228;20.890;2023-04-08T13:54:39;7.60;;;4.15;;
42084;SDS011;27746;52.228;20.890;2023-04-08T13:57:08;6.30;;;4.13;;
42084;SDS011;27746;52.228;20.890;2023-04-08T13:59:34;8.75;;;4.88;;
42084;SDS011;27746;52.228;20.890;2023-04-08T14:02:01;6.25;;;4.40;;
42084;SDS011;27746;52.228;20.890;2023-04-08T14:04:29;6.70;;;4.53;;
42084;SDS011;27746;52.228;20.890;2023-04-08T14:06:56;8.10;;;5.03;;
42084;SDS011;27746;52.228;20.890;2023-04-08T14:09:23;8.40;;;5.32;;
42084;SDS011;27746;52.228;20.890;2023-04-08T14:11:50;5.50;;;4.03;;
42084;SDS011;27746;52.228;20.890;2023-04-08T14:14:19;40.28;;;7.43;;
42084;SDS011;27746;52.228;20.890;2023-04-08T14:16:45;12.65;;;5.22;;
42084;SDS011;27746;52.228;20.890;2023-04-08T14:19:13;7.85;;;4.80;;
42084;SDS011;27746;52.228;20.890;2023-04-08T14:21:40;6.70;;;4.45;;
42084;SDS011;27746;52.228;20.890;2023-04-08T14:24:07;7.63;;;4.47;;
42084;SDS011;27746;52.228;20.890;2023-04-08T14:26:35;6.85;;;4.65;;
42084;SDS011;27746;52.228;20.890;2023-04-08T14:29:02;7.05;;;4.80;;
42084;SDS011;27746;52.228;20.890;2023-04-08T14:31:31;7.57;;;4.55;;
42084;SDS011;27746;52.228;20.890;2023-04-08T14:33:58;6.75;;;4.72;;
42084;SDS011;27746;52.228;20.890;2023-04-08T14:36:25;6.90;;;4.35;;